createdAt,value
2022-10-26T00:03:24.363Z,0.40
2022-10-26T00:08:29.152Z,0.40
2022-10-26T00:13:32.617Z,0.30
2022-10-26T00:18:35.853Z,0.30
2022-10-26T00:23:40.349Z,0.30
2022-10-26T00:28:43.626Z,0.20
2022-10-26T00:33:46.748Z,0.37
2022-10-26T00:38:52.065Z,0.30
2022-10-26T00:43:55.699Z,0.20
2022-10-26T00:49:01.654Z,0.40
2022-10-26T00:54:11.348Z,0.40
2022-10-26T00:59:16.403Z,0.30
2022-10-26T01:04:20.041Z,0.40
2022-10-26T01:09:25.957Z,0.40
2022-10-26T01:14:31.873Z,0.43
2022-10-26T01:20:06.551Z,0.50
2022-10-26T01:25:24.650Z,0.57
2022-10-26T01:30:40.053Z,0.40
2022-10-26T01:35:52.166Z,0.47
2022-10-26T01:41:00.927Z,0.53
2022-10-26T01:46:07.704Z,0.20
2022-10-26T01:51:12.557Z,0.70
2022-10-26T01:56:22.078Z,0.30
2022-10-26T02:01:50.904Z,0.70
2022-10-26T02:07:02.567Z,0.47
2022-10-26T02:12:12.433Z,0.60
2022-10-26T02:17:27.929Z,0.47
2022-10-26T02:22:34.579Z,0.60
2022-10-26T02:27:43.094Z,0.60
2022-10-26T02:32:51.841Z,0.60
2022-10-26T02:37:57.052Z,0.83
2022-10-26T02:43:04.080Z,0.57
2022-10-26T02:48:09.113Z,0.60
2022-10-26T02:53:19.630Z,0.67
2022-10-26T02:58:26.924Z,0.70
2022-10-26T03:03:31.823Z,0.80
2022-10-26T03:08:34.947Z,0.80
2022-10-26T03:13:38.274Z,0.87
2022-10-26T03:18:42.922Z,0.60
2022-10-26T03:23:47.972Z,0.60
2022-10-26T03:28:51.134Z,0.50
2022-10-26T03:33:55.955Z,0.70
2022-10-26T03:38:59.082Z,0.70
2022-10-26T03:44:02.428Z,0.67
2022-10-26T03:49:06.950Z,0.73
2022-10-26T03:54:10.383Z,0.67
2022-10-26T03:59:13.485Z,0.83
2022-10-26T04:04:18.001Z,0.87
2022-10-26T04:09:21.722Z,0.50
2022-10-26T04:14:24.795Z,0.70
2022-10-26T04:19:29.334Z,0.80
2022-10-26T04:24:33.226Z,0.67
2022-10-26T04:29:36.355Z,0.87
2022-10-26T04:34:40.908Z,0.70
2022-10-26T04:39:44.129Z,0.53
2022-10-26T04:44:47.357Z,0.70
2022-10-26T04:49:51.997Z,0.60
2022-10-26T04:54:55.076Z,0.70
2022-10-26T04:59:58.108Z,0.60
2022-10-26T05:10:07.782Z,0.77
2022-10-26T05:15:14.145Z,0.90
2022-10-26T05:20:18.650Z,0.70
2022-10-26T05:25:21.741Z,0.60
2022-10-26T05:30:24.826Z,0.60
2022-10-26T05:35:29.762Z,0.40
2022-10-26T05:40:32.848Z,0.53
2022-10-26T05:45:35.993Z,0.43
2022-10-26T05:50:40.565Z,0.53
2022-10-26T05:55:44.582Z,0.50
2022-10-26T06:01:00.438Z,0.47
2022-10-26T06:06:07.418Z,0.67
2022-10-26T06:11:12.095Z,0.57
2022-10-26T06:16:28.670Z,0.70
2022-10-26T06:21:48.458Z,0.73
2022-10-26T06:27:01.427Z,0.50
2022-10-26T06:32:04.833Z,0.60
2022-10-26T06:37:10.196Z,0.53
2022-10-26T06:42:14.080Z,0.50
2022-10-26T06:47:26.123Z,0.80
2022-10-26T06:52:37.036Z,0.60
2022-10-26T06:57:42.237Z,0.70
2022-10-26T07:02:45.611Z,0.70
2022-10-26T07:07:51.295Z,0.70
2022-10-26T07:12:54.911Z,0.50
2022-10-26T07:17:58.063Z,0.70
2022-10-26T07:23:02.820Z,0.40
2022-10-26T07:28:06.596Z,0.73
2022-10-26T07:33:11.759Z,0.90
2022-10-26T07:38:16.270Z,0.80
2022-10-26T07:43:19.700Z,0.70
2022-10-26T07:48:23.160Z,0.93
2022-10-26T07:53:28.137Z,0.97
2022-10-26T07:58:32.736Z,0.60
2022-10-26T08:03:35.958Z,0.70
2022-10-26T08:08:44.893Z,0.70
2022-10-26T08:13:53.401Z,0.90
2022-10-26T08:18:56.909Z,0.70
2022-10-26T08:24:01.535Z,0.80
2022-10-26T08:29:05.034Z,0.63
2022-10-26T08:34:08.393Z,0.80
2022-10-26T08:39:12.920Z,0.90
2022-10-26T08:44:26.541Z,0.80
2022-10-26T08:49:33.814Z,0.70
2022-10-26T08:54:41.599Z,0.90
2022-10-26T08:59:50.091Z,0.83
2022-10-26T09:04:54.850Z,1.10
2022-10-26T09:10:08.407Z,1.00
2022-10-26T09:15:20.232Z,0.60
2022-10-26T09:20:54.491Z,0.60
2022-10-26T09:26:02.226Z,0.50
2022-10-26T09:31:06.702Z,0.80
2022-10-26T09:36:16.782Z,0.90
2022-10-26T09:41:29.616Z,0.97
2022-10-26T09:46:50.509Z,0.70
2022-10-26T09:51:53.608Z,0.77
2022-10-26T09:57:02.050Z,0.90
2022-10-26T10:02:34.161Z,0.80
2022-10-26T10:07:40.033Z,0.70
2022-10-26T10:12:45.258Z,0.83
2022-10-26T10:17:52.976Z,0.90
2022-10-26T10:23:01.202Z,1.10
2022-10-26T10:28:22.566Z,0.70
2022-10-26T10:33:37.905Z,0.70
2022-10-26T10:38:43.253Z,0.70
2022-10-26T10:43:50.959Z,1.07
2022-10-26T10:49:03.952Z,0.60
2022-10-26T10:54:08.352Z,0.60
2022-10-26T10:59:35.264Z,0.70
2022-10-26T11:04:54.396Z,0.70
2022-10-26T11:10:01.764Z,0.80
2022-10-26T11:15:14.131Z,0.80
2022-10-26T11:20:20.362Z,0.50
2022-10-26T11:25:28.100Z,0.53
2022-10-26T11:30:35.950Z,0.47
2022-10-26T11:35:46.268Z,0.73
2022-10-26T11:40:54.829Z,0.87
2022-10-26T11:46:06.871Z,0.40
2022-10-26T11:51:15.985Z,0.60
2022-10-26T11:56:31.035Z,0.50
2022-10-26T12:01:36.033Z,0.50
2022-10-26T12:06:39.623Z,0.50
2022-10-26T12:11:47.346Z,0.30
2022-10-26T12:16:59.554Z,0.50
2022-10-26T12:22:03.632Z,0.40
2022-10-26T12:27:07.560Z,0.30
2022-10-26T12:32:55.653Z,0.40
2022-10-26T12:37:59.287Z,0.30
2022-10-26T12:43:36.834Z,0.50
2022-10-26T12:48:45.400Z,0.30
2022-10-26T12:53:54.858Z,0.30
2022-10-26T12:59:21.095Z,0.27
2022-10-26T13:04:50.713Z,0.40
2022-10-26T13:10:01.379Z,0.30
2022-10-26T13:15:07.839Z,0.30
2022-10-26T13:20:19.477Z,0.30
2022-10-26T13:25:25.687Z,0.20
2022-10-26T13:30:48.297Z,0.20
2022-10-26T13:35:57.895Z,0.20
2022-10-26T13:41:12.468Z,0.30
2022-10-26T13:46:26.726Z,0.20
2022-10-26T13:51:41.746Z,0.20
2022-10-26T13:56:54.763Z,0.20
2022-10-26T14:02:08.608Z,0.20
2022-10-26T14:07:22.744Z,0.20
2022-10-26T14:12:28.924Z,0.40
2022-10-26T14:17:32.420Z,0.30
2022-10-26T14:22:37.150Z,0.20
2022-10-26T14:27:43.293Z,0.20
2022-10-26T14:32:46.716Z,0.20
2022-10-26T14:37:55.105Z,0.30
2022-10-26T14:43:00.131Z,0.30
2022-10-26T14:48:05.397Z,0.20
2022-10-26T14:53:16.774Z,0.20
2022-10-26T14:58:26.727Z,0.10
2022-10-26T15:03:30.647Z,0.20
2022-10-26T15:08:52.602Z,0.20
2022-10-26T15:14:00.818Z,0.20
2022-10-26T15:19:10.368Z,0.20
2022-10-26T15:24:31.151Z,0.30
2022-10-26T15:29:41.879Z,0.20
2022-10-26T15:35:06.413Z,0.20
2022-10-26T15:40:12.322Z,0.27
2022-10-26T15:45:19.420Z,0.30
2022-10-26T15:50:24.373Z,0.37
2022-10-26T15:55:29.734Z,0.30
2022-10-26T16:00:33.010Z,0.30
2022-10-26T16:05:37.298Z,0.30
2022-10-26T16:10:41.854Z,0.37
2022-10-26T16:15:46.000Z,0.20
2022-10-26T16:20:49.569Z,0.20
2022-10-26T16:25:54.066Z,0.30
2022-10-26T16:31:00.408Z,0.30
2022-10-26T16:36:05.572Z,0.33
2022-10-26T16:41:12.581Z,0.27
2022-10-26T16:46:17.426Z,0.40
2022-10-26T16:51:22.920Z,0.40
2022-10-26T16:56:29.223Z,0.40
2022-10-26T17:01:32.806Z,0.40
2022-10-26T17:06:36.160Z,0.40
2022-10-26T17:11:40.684Z,0.50
2022-10-26T17:16:44.276Z,0.60
2022-10-26T17:21:47.418Z,0.50
2022-10-26T17:26:51.989Z,0.50
2022-10-26T17:31:55.455Z,0.53
2022-10-26T17:36:59.100Z,0.70
2022-10-26T17:42:06.566Z,0.43
2022-10-26T17:47:17.554Z,0.60
2022-10-26T17:52:20.832Z,0.60
2022-10-26T17:57:28.861Z,1.00
2022-10-26T18:02:37.700Z,0.77
2022-10-26T18:07:41.246Z,0.50
2022-10-26T18:12:45.893Z,0.60
2022-10-26T18:17:55.403Z,0.50
2022-10-26T18:23:05.305Z,0.50
2022-10-26T18:28:13.233Z,0.43
2022-10-26T18:33:17.311Z,0.30
2022-10-26T18:38:20.435Z,0.33
2022-10-26T18:43:25.020Z,0.40
2022-10-26T18:48:28.395Z,0.20
2022-10-26T18:53:34.071Z,0.40
2022-10-26T18:58:42.744Z,0.60
2022-10-26T19:03:46.537Z,0.30
2022-10-26T19:08:49.682Z,0.30
2022-10-26T19:13:55.865Z,0.50
2022-10-26T19:19:02.193Z,0.50
2022-10-26T19:24:12.505Z,0.40
2022-10-26T19:29:20.396Z,0.40
2022-10-26T19:34:23.655Z,0.40
2022-10-26T19:39:30.511Z,0.30
2022-10-26T19:44:35.255Z,0.50
2022-10-26T19:49:44.019Z,0.50
2022-10-26T19:54:47.141Z,0.30
2022-10-26T19:59:51.929Z,0.40
2022-10-26T20:04:55.268Z,0.40
2022-10-26T20:09:58.402Z,0.30
2022-10-26T20:15:09.933Z,0.30
2022-10-26T20:20:13.398Z,0.20
2022-10-26T20:25:16.560Z,0.30
2022-10-26T20:30:21.020Z,0.43
2022-10-26T20:35:24.170Z,0.30
2022-10-26T20:40:28.901Z,0.37
2022-10-26T20:45:34.858Z,0.43
2022-10-26T20:50:39.035Z,0.40
2022-10-26T20:55:49.929Z,0.33
2022-10-26T21:00:59.232Z,0.40
2022-10-26T21:06:02.501Z,0.50
2022-10-26T21:11:08.183Z,0.47
2022-10-26T21:16:13.332Z,0.30
2022-10-26T21:21:16.953Z,0.23
2022-10-26T21:26:20.605Z,0.23
2022-10-26T21:31:25.238Z,0.30
2022-10-26T21:36:28.485Z,0.33
2022-10-26T21:41:31.462Z,0.40
2022-10-26T21:46:36.418Z,0.60
2022-10-26T21:51:42.223Z,0.40
2022-10-26T21:56:45.351Z,0.30
2022-10-26T22:01:50.071Z,0.20
2022-10-26T22:06:53.433Z,0.40
2022-10-26T22:11:56.649Z,0.37
2022-10-26T22:17:01.065Z,0.40
2022-10-26T22:22:04.136Z,0.30
2022-10-26T22:27:07.281Z,0.30
2022-10-26T22:32:11.934Z,0.40
2022-10-26T22:37:15.304Z,0.50
2022-10-26T22:42:18.536Z,0.43
2022-10-26T22:47:22.970Z,0.30
2022-10-26T22:52:26.016Z,0.30
2022-10-26T22:57:29.073Z,0.40
2022-10-26T23:02:33.551Z,0.43
2022-10-26T23:07:36.872Z,0.30
2022-10-26T23:12:40.202Z,0.47
2022-10-26T23:17:44.917Z,0.40
2022-10-26T23:22:48.130Z,0.30
2022-10-26T23:27:51.451Z,0.47
2022-10-26T23:32:57.565Z,0.40
2022-10-26T23:38:01.471Z,0.40
2022-10-26T23:43:04.767Z,0.40
2022-10-26T23:48:09.225Z,0.30
2022-10-26T23:53:12.466Z,0.40
2022-10-26T23:58:16.858Z,0.30
